sensor_id;sensor_type;location;lat;lon;timestamp;pressure;altitude;pressure_sealevel;temperature;humidity
79457;BME280;68908;43.654;3.884;2023-04-06T15:40:24;101408.56;;;18.28;40.47
79457;BME280;68908;43.654;3.884;2023-04-06T15:42:50;101398.91;;;17.74;38.00
79457;BME280;68908;43.654;3.884;2023-04-06T15:45:16;101401.66;;;17.71;39.29
79457;BME280;68908;43.654;3.884;2023-04-06T15:47:42;101408.13;;;17.59;41.55
79457;BME280;68908;43.654;3.884;2023-04-06T15:50:09;101410.84;;;17.56;44.01
79457;BME280;68908;43.654;3.884;2023-04-06T15:52:35;101411.91;;;17.50;42.21
79457;BME280;68908;43.654;3.884;2023-04-06T15:55:02;101405.94;;;17.45;42.80
79457;BME280;68908;43.654;3.884;2023-04-06T15:57:28;101406.94;;;17.41;44.30
79457;BME280;68908;43.654;3.884;2023-04-06T15:59:54;101406.97;;;17.40;44.20
79457;BME280;68908;43.654;3.884;2023-04-06T16:02:20;101403.47;;;17.41;45.50
79457;BME280;68908;43.654;3.884;2023-04-06T16:04:48;101399.16;;;17.38;44.06
79457;BME280;68908;43.654;3.884;2023-04-06T16:07:13;101405.38;;;17.36;43.50
79457;BME280;68908;43.654;3.884;2023-04-06T16:09:39;101401.94;;;17.33;43.54
79457;BME280;68908;43.654;3.884;2023-04-06T16:12:04;101406.25;;;17.34;45.84
79457;BME280;68908;43.654;3.884;2023-04-06T16:14:30;101411.63;;;17.31;44.10
79457;BME280;68908;43.654;3.884;2023-04-06T16:16:55;101414.28;;;17.30;45.51
79457;BME280;68908;43.654;3.884;2023-04-06T16:19:21;101412.56;;;17.29;44.56
79457;BME280;68908;43.654;3.884;2023-04-06T16:21:46;101410.84;;;17.28;44.09
79457;BME280;68908;43.654;3.884;2023-04-06T16:24:12;101415.22;;;17.27;44.32
79457;BME280;68908;43.654;3.884;2023-04-06T16:26:37;101410.94;;;17.25;48.03
79457;BME280;68908;43.654;3.884;2023-04-06T16:29:04;101417.19;;;17.21;48.36
79457;BME280;68908;43.654;3.884;2023-04-06T16:31:29;101425.00;;;17.22;45.53
79457;BME280;68908;43.654;3.884;2023-04-06T16:33:57;101415.13;;;16.68;49.20
79457;BME280;68908;43.654;3.884;2023-04-06T16:36:29;101410.50;;;16.45;46.85
79457;BME280;68908;43.654;3.884;2023-04-06T16:38:57;101418.44;;;16.42;46.34
79457;BME280;68908;43.654;3.884;2023-04-06T16:41:23;101419.22;;;16.45;46.44
79457;BME280;68908;43.654;3.884;2023-04-06T16:43:49;101420.44;;;16.32;45.43
79457;BME280;68908;43.654;3.884;2023-04-06T16:46:15;101419.66;;;16.28;45.82
79457;BME280;68908;43.654;3.884;2023-04-06T16:48:41;101415.34;;;16.26;44.41
79457;BME280;68908;43.654;3.884;2023-04-06T16:51:07;101417.41;;;16.13;45.78
79457;BME280;68908;43.654;3.884;2023-04-06T16:53:33;101412.91;;;16.18;45.38
79457;BME280;68908;43.654;3.884;2023-04-06T16:56:02;101415.13;;;16.35;46.77
79457;BME280;68908;43.654;3.884;2023-04-06T16:58:29;101423.47;;;16.15;46.13
79457;BME280;68908;43.654;3.884;2023-04-06T17:00:54;101416.66;;;16.08;47.96
79457;BME280;68908;43.654;3.884;2023-04-06T17:03:20;101425.28;;;16.13;46.18
79457;BME280;68908;43.654;3.884;2023-04-06T17:05:45;101425.91;;;16.23;47.51
79457;BME280;68908;43.654;3.884;2023-04-06T17:08:10;101427.19;;;16.42;48.70
79457;BME280;68908;43.654;3.884;2023-04-06T17:10:36;101416.41;;;16.53;47.90
79457;BME280;68908;43.654;3.884;2023-04-06T17:13:01;101423.25;;;16.58;49.23
79457;BME280;68908;43.654;3.884;2023-04-06T17:15:26;101420.59;;;16.60;50.17
79457;BME280;68908;43.654;3.884;2023-04-06T17:17:53;101422.31;;;16.59;50.70
79457;BME280;68908;43.654;3.884;2023-04-06T17:20:19;101418.78;;;16.62;50.04
79457;BME280;68908;43.654;3.884;2023-04-06T17:22:45;101418.78;;;16.62;51.17
79457;BME280;68908;43.654;3.884;2023-04-06T17:25:11;101419.63;;;16.63;50.96
79457;BME280;68908;43.654;3.884;2023-04-06T17:27:37;101425.78;;;16.62;51.52
79457;BME280;68908;43.654;3.884;2023-04-06T17:30:03;101433.66;;;16.62;52.25
79457;BME280;68908;43.654;3.884;2023-04-06T17:32:31;101432.75;;;16.63;51.78
79457;BME280;68908;43.654;3.884;2023-04-06T17:34:57;101438.78;;;16.66;52.44
79457;BME280;68908;43.654;3.884;2023-04-06T17:37:22;101432.63;;;16.67;52.21
79457;BME280;68908;43.654;3.884;2023-04-06T17:39:48;101429.97;;;16.69;52.53
79457;BME280;68908;43.654;3.884;2023-04-06T17:42:13;101435.25;;;16.67;52.86
79457;BME280;68908;43.654;3.884;2023-04-06T17:44:39;101432.72;;;16.64;52.60
79457;BME280;68908;43.654;3.884;2023-04-06T17:47:04;101438.00;;;16.63;53.27
79457;BME280;68908;43.654;3.884;2023-04-06T17:49:30;101435.28;;;16.66;53.76
79457;BME280;68908;43.654;3.884;2023-04-06T17:51:55;101436.28;;;16.62;53.62
79457;BME280;68908;43.654;3.884;2023-04-06T17:54:21;101438.91;;;16.62;53.69
79457;BME280;68908;43.654;3.884;2023-04-06T17:56:46;101436.34;;;16.58;53.21
79457;BME280;68908;43.654;3.884;2023-04-06T17:59:13;101435.44;;;16.59;54.45
79457;BME280;68908;43.654;3.884;2023-04-06T18:01:39;101437.22;;;16.59;54.26
79457;BME280;68908;43.654;3.884;2023-04-06T18:04:05;101431.13;;;16.58;53.66
79457;BME280;68908;43.654;3.884;2023-04-06T18:06:30;101430.34;;;16.55;54.93
79457;BME280;68908;43.654;3.884;2023-04-06T18:08:57;101423.28;;;16.57;53.46
79457;BME280;68908;43.654;3.884;2023-04-06T18:11:23;101422.53;;;16.52;54.49
79457;BME280;68908;43.654;3.884;2023-04-06T18:13:50;101429.41;;;16.56;52.75
79457;BME280;68908;43.654;3.884;2023-04-06T18:16:18;101425.97;;;16.54;53.91
79457;BME280;68908;43.654;3.884;2023-04-06T18:18:45;101425.16;;;16.52;53.75
79457;BME280;68908;43.654;3.884;2023-04-06T18:21:10;101424.28;;;16.53;52.99
79457;BME280;68908;43.654;3.884;2023-04-06T18:23:36;101420.91;;;16.48;52.41
79457;BME280;68908;43.654;3.884;2023-04-06T18:26:02;101429.63;;;16.48;52.29
79457;BME280;68908;43.654;3.884;2023-04-06T18:28:28;101434.91;;;16.47;52.61
79457;BME280;68908;43.654;3.884;2023-04-06T18:30:56;101436.75;;;16.43;51.98
79457;BME280;68908;43.654;3.884;2023-04-06T18:33:21;101434.03;;;16.48;51.50
79457;BME280;68908;43.654;3.884;2023-04-06T18:35:47;101439.34;;;16.45;51.47
79457;BME280;68908;43.654;3.884;2023-04-06T18:38:12;101443.75;;;16.43;52.12
79457;BME280;68908;43.654;3.884;2023-04-06T18:40:38;101447.28;;;16.42;52.05
79457;BME280;68908;43.654;3.884;2023-04-06T18:43:06;101452.63;;;16.38;52.31
79457;BME280;68908;43.654;3.884;2023-04-06T18:45:33;101450.00;;;16.38;52.60
79457;BME280;68908;43.654;3.884;2023-04-06T18:47:59;101457.06;;;16.35;51.53
79457;BME280;68908;43.654;3.884;2023-04-06T18:50:25;101451.78;;;16.36;51.26
79457;BME280;68908;43.654;3.884;2023-04-06T18:52:51;101453.66;;;16.31;52.40
79457;BME280;68908;43.654;3.884;2023-04-06T18:55:17;101458.03;;;16.31;52.01
79457;BME280;68908;43.654;3.884;2023-04-06T18:57:46;101463.31;;;16.29;52.40
79457;BME280;68908;43.654;3.884;2023-04-06T19:00:14;101455.56;;;16.25;53.24
79457;BME280;68908;43.654;3.884;2023-04-06T19:02:40;101460.75;;;16.28;52.60
79457;BME280;68908;43.654;3.884;2023-04-06T19:05:06;101458.19;;;16.25;53.35
79457;BME280;68908;43.654;3.884;2023-04-06T19:07:31;101461.72;;;16.22;52.95
79457;BME280;68908;43.654;3.884;2023-04-06T19:09:58;101464.41;;;16.20;52.98
79457;BME280;68908;43.654;3.884;2023-04-06T19:12:24;101461.91;;;16.16;52.60
79457;BME280;68908;43.654;3.884;2023-04-06T19:14:49;101463.53;;;16.20;53.72
79457;BME280;68908;43.654;3.884;2023-04-06T19:17:17;101474.97;;;16.17;54.08
79457;BME280;68908;43.654;3.884;2023-04-06T19:19:43;101470.56;;;16.18;52.35
79457;BME280;68908;43.654;3.884;2023-04-06T19:22:09;101477.56;;;16.19;53.91
79457;BME280;68908;43.654;3.884;2023-04-06T19:24:35;101469.78;;;16.14;54.19
79457;BME280;68908;43.654;3.884;2023-04-06T19:27:01;101469.84;;;16.11;53.07
79457;BME280;68908;43.654;3.884;2023-04-06T19:29:26;101471.75;;;16.42;51.72
